Time,TemperatureF,DewpointF,PressureIn,WindDirection,WindDirectionDegrees,WindSpeedMPH,WindSpeedGustMPH,Humidity,HourlyPrecipIn,Conditions,Clouds,dailyrainin,SoftwareType,DateUTC
2013-01-02 00:00:00,44.0,44.0,30.04,NNE,14,6.6,10.9,100,0.00,,,0.00,Meteorologica,2013-01-02 05:00:00,
2013-01-02 00:01:00,44.0,44.0,30.04,North,10,6.7,10.9,100,0.00,,,0.00,Meteorologica,2013-01-02 05:01:00,
2013-01-02 00:03:00,43.9,43.9,30.05,NNW,336,5.0,10.9,100,0.00,,,0.00,Meteorologica,2013-01-02 05:03:00,
2013-01-02 00:08:00,43.3,43.3,30.05,NE,43,2.3,9.7,100,0.00,,,0.00,Meteorologica,2013-01-02 05:08:00,
2013-01-02 00:13:00,42.9,42.9,30.05,North,4,2.3,8.3,100,0.00,,,0.00,Meteorologica,2013-01-02 05:13:00,
2013-01-02 00:18:00,42.5,42.5,30.04,NW,306,1.0,5.6,100,0.00,,,0.00,Meteorologica,2013-01-02 05:18:00,
2013-01-02 00:23:00,42.3,42.3,30.04,North,351,1.2,7.1,100,0.00,,,0.00,Meteorologica,2013-01-02 05:23:00,
2013-01-02 00:28:00,41.9,41.9,30.04,NNE,21,1.9,5.0,100,0.00,,,0.00,Meteorologica,2013-01-02 05:28:00,
2013-01-02 00:33:00,41.7,41.7,30.03,NNE,23,1.6,5.4,100,0.00,,,0.00,Meteorologica,2013-01-02 05:33:00,
2013-01-02 00:38:00,41.5,41.5,30.04,NNE,22,4.0,7.1,100,0.00,,,0.00,Meteorologica,2013-01-02 05:38:00,
2013-01-02 00:43:00,41.3,41.3,30.05,NNE,12,5.6,6.4,100,0.00,,,0.00,Meteorologica,2013-01-02 05:43:00,
2013-01-02 00:48:00,41.2,41.2,30.05,North,11,1.3,7.3,100,0.00,,,0.00,Meteorologica,2013-01-02 05:48:00,
2013-01-02 00:53:00,41.3,41.3,30.06,NNE,31,1.2,5.6,100,0.00,,,0.00,Meteorologica,2013-01-02 05:53:00,
2013-01-02 00:58:00,41.2,41.2,30.05,North,7,3.0,5.5,100,0.00,,,0.00,Meteorologica,2013-01-02 05:58:00,
2013-01-02 01:03:00,41.2,41.2,30.05,NNW,337,0.4,6.6,100,0.00,,,0.00,Meteorologica,2013-01-02 06:03:00,
2013-01-02 01:08:00,41.0,41.0,30.05,NNE,27,2.9,4.8,100,0.00,,,0.00,Meteorologica,2013-01-02 06:08:00,
2013-01-02 02:00:00,40.9,40.9,30.06,NNE,23,2.6,4.2,100,0.00,,,0.00,Meteorologica,2013-01-02 07:00:00,
2013-01-02 02:05:00,41.0,41.0,30.07,North,353,2.4,5.5,100,0.00,,,0.00,Meteorologica,2013-01-02 07:05:00,
2013-01-02 02:10:00,41.0,41.0,30.07,North,357,0.0,5.1,100,0.00,,,0.00,Meteorologica,2013-01-02 07:10:00,
2013-01-02 02:15:00,40.8,40.8,30.07,NNE,15,2.5,4.9,100,0.00,,,0.00,Meteorologica,2013-01-02 07:15:00,
2013-01-02 02:20:00,40.7,40.7,30.07,NW,311,2.1,5.0,100,0.00,,,0.00,Meteorologica,2013-01-02 07:20:00,
2013-01-02 02:25:00,40.9,40.9,30.06,North,9,1.6,3.9,100,0.00,,,0.00,Meteorologica,2013-01-02 07:25:00,
2013-01-02 02:30:00,40.9,40.9,30.06,North,2,1.9,4.0,100,0.00,,,0.00,Meteorologica,2013-01-02 07:30:00,
2013-01-02 02:35:00,40.8,40.8,30.06,NNE,18,2.0,3.5,100,0.00,,,0.00,Meteorologica,2013-01-02 07:35:00,
2013-01-02 02:40:00,40.7,40.7,30.06,North,8,0.0,2.5,100,0.00,,,0.00,Meteorologica,2013-01-02 07:40:00,
2013-01-02 02:46:00,40.7,40.7,30.07,North,8,0.0,0.0,100,0.00,,,0.00,Meteorologica,2013-01-02 07:46:00,
2013-01-02 02:52:00,40.6,40.6,30.07,North,8,0.0,0.0,100,0.00,,,0.00,Meteorologica,2013-01-02 07:52:00,
2013-01-02 02:57:00,40.6,40.6,30.07,North,354,2.2,2.6,100,0.00,,,0.00,Meteorologica,2013-01-02 07:57:00,
2013-01-02 03:02:00,40.7,40.7,30.07,North,352,0.0,5.6,100,0.00,,,0.00,Meteorologica,2013-01-02 08:02:00,
2013-01-02 03:07:00,40.5,40.5,30.06,North,352,0.0,0.0,100,0.00,,,0.00,Meteorologica,2013-01-02 08:07:00,
2013-01-02 03:12:00,40.6,40.6,30.06,North,352,0.0,0.0,100,0.00,,,0.00,Meteorologica,2013-01-02 08:12:00,
2013-01-02 03:17:00,40.6,40.6,30.06,North,352,0.0,0.0,100,0.00,,,0.00,Meteorologica,2013-01-02 08:17:00,
2013-01-02 03:22:00,40.3,40.3,30.06,SW,233,3.6,4.3,100,0.00,,,0.00,Meteorologica,2013-01-02 08:22:00,
2013-01-02 03:27:00,40.5,40.5,30.06,NNE,16,0.0,4.8,100,0.00,,,0.00,Meteorologica,2013-01-02 08:27:00,
2013-01-02 03:32:00,40.5,40.5,30.07,NNE,16,0.0,1.9,100,0.00,,,0.00,Meteorologica,2013-01-02 08:32:00,
2013-01-02 03:37:00,40.4,40.4,30.06,NNE,12,1.9,0.0,100,0.00,,,0.00,Meteorologica,2013-01-02 08:37:00,
2013-01-02 03:42:00,40.5,40.5,30.07,NNE,16,0.0,2.4,100,0.00,,,0.00,Meteorologica,2013-01-02 08:42:00,
2013-01-02 03:48:00,40.4,40.4,30.07,NNE,16,0.0,2.0,100,0.00,,,0.00,Meteorologica,2013-01-02 08:48:00,
2013-01-02 03:53:00,40.3,40.3,30.07,NNW,338,2.2,7.3,100,0.00,,,0.00,Meteorologica,2013-01-02 08:53:00,
2013-01-02 03:58:00,40.3,40.3,30.08,North,11,0.0,4.8,100,0.00,,,0.00,Meteorologica,2013-01-02 08:58:00,
2013-01-02 04:03:00,40.3,40.3,30.07,NE,39,2.3,3.3,100,0.00,,,0.00,Meteorologica,2013-01-02 09:03:00,
2013-01-02 04:08:00,40.3,40.3,30.07,NNE,19,3.7,6.3,100,0.00,,,0.00,Meteorologica,2013-01-02 09:08:00,
2013-01-02 04:13:00,40.3,40.3,30.07,NNE,27,4.9,6.3,100,0.00,,,0.00,Meteorologica,2013-01-02 09:13:00,
2013-01-02 04:19:00,40.2,40.2,30.07,North,4,0.0,6.3,100,0.00,,,0.00,Meteorologica,2013-01-02 09:19:00,
2013-01-02 04:24:00,40.1,40.1,30.08,SW,222,1.6,6.1,100,0.00,,,0.00,Meteorologica,2013-01-02 09:24:00,
2013-01-02 04:29:00,40.0,40.0,30.08,NNE,32,3.0,7.4,100,0.00,,,0.00,Meteorologica,2013-01-02 09:29:00,
2013-01-02 04:34:00,39.9,39.9,30.07,North,359,1.5,9.7,100,0.00,,,0.00,Meteorologica,2013-01-02 09:34:00,
2013-01-02 04:39:00,39.9,39.9,30.07,NE,36,3.2,8.3,100,0.00,,,0.00,Meteorologica,2013-01-02 09:39:00,
2013-01-02 04:44:00,39.9,39.9,30.08,NNE,13,5.2,6.1,100,0.00,,,0.00,Meteorologica,2013-01-02 09:44:00,
2013-01-02 04:49:00,39.8,39.8,30.08,North,9,3.3,7.4,100,0.00,,,0.00,Meteorologica,2013-01-02 09:49:00,
2013-01-02 04:54:00,39.6,39.6,30.08,NNE,31,3.9,6.1,100,0.00,,,0.00,Meteorologica,2013-01-02 09:54:00,
2013-01-02 04:59:00,39.6,39.6,30.09,North,4,4.0,6.3,100,0.00,,,0.00,Meteorologica,2013-01-02 09:59:00,
2013-01-02 05:04:00,39.6,39.6,30.09,North,9,0.0,6.4,100,0.00,,,0.00,Meteorologica,2013-01-02 10:04:00,
2013-01-02 05:10:00,39.6,39.6,30.09,North,9,0.0,0.0,100,0.00,,,0.00,Meteorologica,2013-01-02 10:10:00,
2013-01-02 05:15:00,39.6,39.6,30.08,North,9,0.0,0.0,100,0.00,,,0.00,Meteorologica,2013-01-02 10:15:00,
2013-01-02 05:20:00,39.5,39.5,30.09,NNE,31,2.8,5.0,100,0.00,,,0.00,Meteorologica,2013-01-02 10:20:00,
2013-01-02 05:25:00,39.3,39.3,30.09,NNE,18,1.3,6.6,100,0.00,,,0.00,Meteorologica,2013-01-02 10:25:00,
2013-01-02 05:30:00,39.3,39.3,30.09,NNE,12,4.3,7.1,100,0.00,,,0.00,Meteorologica,2013-01-02 10:30:00,
2013-01-02 05:35:00,39.3,39.3,30.09,North,4,1.5,5.3,100,0.00,,,0.00,Meteorologica,2013-01-02 10:35:00,
2013-01-02 05:40:00,39.2,39.2,30.10,North,352,0.9,5.0,100,0.00,,,0.00,Meteorologica,2013-01-02 10:40:00,
2013-01-02 05:45:00,39.2,39.2,30.10,NNE,19,2.8,6.5,100,0.00,,,0.00,Meteorologica,2013-01-02 10:45:00,
2013-01-02 05:50:00,39.0,39.0,30.10,NNE,13,4.1,5.2,100,0.00,,,0.00,Meteorologica,2013-01-02 10:50:00,
2013-01-02 05:55:00,39.0,39.0,30.11,NNE,29,0.0,6.8,100,0.00,,,0.00,Meteorologica,2013-01-02 10:55:00,
2013-01-02 06:00:00,39.1,39.1,30.11,NNE,15,0.0,5.3,100,0.00,,,0.00,Meteorologica,2013-01-02 11:00:00,
2013-01-02 06:05:00,39.0,39.0,30.11,WNW,302,0.0,5.4,100,0.00,,,0.00,Meteorologica,2013-01-02 11:05:00,
2013-01-02 06:10:00,39.0,39.0,30.10,North,9,2.6,3.8,100,0.00,,,0.00,Meteorologica,2013-01-02 11:10:00,
2013-01-02 06:16:00,38.9,38.9,30.10,North,9,0.0,4.7,100,0.00,,,0.00,Meteorologica,2013-01-02 11:16:00,
2013-01-02 06:21:00,38.9,38.9,30.11,NE,52,1.1,3.3,100,0.00,,,0.00,Meteorologica,2013-01-02 11:21:00,
2013-01-02 06:26:00,39.0,39.0,30.11,North,1,0.0,3.2,100,0.00,,,0.00,Meteorologica,2013-01-02 11:26:00,
2013-01-02 06:31:00,38.7,38.7,30.11,NE,45,1.2,7.8,100,0.00,,,0.00,Meteorologica,2013-01-02 11:31:00,
2013-01-02 06:36:00,38.7,38.7,30.11,NNE,16,0.9,6.8,100,0.00,,,0.00,Meteorologica,2013-01-02 11:36:00,
2013-01-02 06:41:00,38.6,38.6,30.11,NNE,14,2.1,7.9,100,0.00,,,0.00,Meteorologica,2013-01-02 11:41:00,
2013-01-02 06:46:00,38.5,38.5,30.11,North,350,0.9,6.0,100,0.00,,,0.00,Meteorologica,2013-01-02 11:46:00,
2013-01-02 06:51:00,38.6,38.6,30.11,North,0,1.8,7.0,100,0.00,,,0.00,Meteorologica,2013-01-02 11:51:00,
2013-01-02 06:56:00,38.4,38.4,30.11,NNE,22,4.1,6.8,100,0.00,,,0.00,Meteorologica,2013-01-02 11:56:00,
2013-01-02 07:01:00,38.4,38.4,30.11,NNE,14,3.4,9.7,100,0.00,,,0.00,Meteorologica,2013-01-02 12:01:00,
2013-01-02 07:06:00,38.5,38.5,30.11,North,9,0.2,6.1,100,0.00,,,0.00,Meteorologica,2013-01-02 12:06:00,
2013-01-02 07:11:00,38.5,38.5,30.12,North,351,5.5,6.2,100,0.00,,,0.00,Meteorologica,2013-01-02 12:11:00,
2013-01-02 07:16:00,38.5,38.5,30.12,North,5,3.6,6.8,100,0.00,,,0.00,Meteorologica,2013-01-02 12:16:00,
2013-01-02 07:21:00,38.3,38.3,30.12,NNE,29,2.8,7.5,100,0.00,,,0.00,Meteorologica,2013-01-02 12:21:00,
2013-01-02 07:26:00,38.4,38.4,30.12,NW,321,2.7,7.1,100,0.00,,,0.00,Meteorologica,2013-01-02 12:26:00,
2013-01-02 07:31:00,38.3,38.3,30.12,North,359,3.2,5.8,100,0.00,,,0.00,Meteorologica,2013-01-02 12:31:00,
2013-01-02 07:36:00,38.4,38.4,30.12,North,9,0.0,5.6,100,0.00,,,0.00,Meteorologica,2013-01-02 12:36:00,
2013-01-02 07:41:00,38.3,38.3,30.14,NNE,26,3.9,5.7,100,0.00,,,0.00,Meteorologica,2013-01-02 12:41:00,
2013-01-02 07:46:00,38.2,38.2,30.13,NE,46,2.9,5.5,100,0.00,,,0.00,Meteorologica,2013-01-02 12:46:00,
2013-01-02 07:51:00,38.1,38.1,30.13,North,0,3.8,5.3,100,0.00,,,0.00,Meteorologica,2013-01-02 12:51:00,
2013-01-02 07:56:00,38.1,38.1,30.13,North,8,2.2,7.0,100,0.00,,,0.00,Meteorologica,2013-01-02 12:56:00,
2013-01-02 08:01:00,38.0,38.0,30.14,NNE,18,0.0,7.4,100,0.00,,,0.00,Meteorologica,2013-01-02 13:01:00,
2013-01-02 08:07:00,38.1,38.1,30.14,North,7,0.0,0.0,100,0.00,,,0.00,Meteorologica,2013-01-02 13:07:00,
2013-01-02 08:12:00,38.1,38.1,30.14,NW,319,2.1,4.4,100,0.00,,,0.00,Meteorologica,2013-01-02 13:12:00,
2013-01-02 08:17:00,38.1,38.1,30.14,North,8,3.7,5.8,100,0.00,,,0.00,Meteorologica,2013-01-02 13:17:00,
2013-01-02 08:22:00,38.1,38.1,30.14,NNE,25,1.2,7.9,100,0.00,,,0.00,Meteorologica,2013-01-02 13:22:00,
2013-01-02 08:27:00,38.2,38.2,30.14,NNE,31,4.6,7.8,100,0.00,,,0.00,Meteorologica,2013-01-02 13:27:00,
2013-01-02 08:32:00,38.1,38.1,30.13,North,11,3.9,6.3,100,0.00,,,0.00,Meteorologica,2013-01-02 13:32:00,
2013-01-02 08:37:00,38.2,38.2,30.14,NNE,12,0.0,6.4,100,0.00,,,0.00,Meteorologica,2013-01-02 13:37:00,
2013-01-02 08:42:00,38.2,38.2,30.14,NNE,26,2.6,2.6,100,0.00,,,0.00,Meteorologica,2013-01-02 13:42:00,
2013-01-02 08:47:00,38.1,38.1,30.14,NE,36,0.0,5.3,100,0.00,,,0.00,Meteorologica,2013-01-02 13:47:00,
2013-01-02 08:52:00,38.1,38.1,30.16,NNW,338,4.3,5.5,100,0.00,,,0.00,Meteorologica,2013-01-02 13:52:00,
2013-01-02 08:57:00,38.1,38.1,30.15,NNE,23,2.7,7.6,100,0.00,,,0.00,Meteorologica,2013-01-02 13:57:00,
2013-01-02 09:02:00,38.1,38.1,30.15,NNE,25,3.7,5.1,100,0.00,,,0.00,Meteorologica,2013-01-02 14:02:00,
2013-01-02 09:07:00,38.2,38.2,30.14,NNE,29,3.8,5.8,100,0.00,,,0.00,Meteorologica,2013-01-02 14:07:00,
2013-01-02 09:12:00,38.2,38.2,30.12,ESE,119,4.0,6.8,100,0.00,,,0.00,Meteorologica,2013-01-02 14:12:00,
2013-01-02 09:17:00,38.2,38.2,30.14,SE,127,4.6,7.2,100,0.00,,,0.00,Meteorologica,2013-01-02 14:17:00,
2013-01-02 09:22:00,38.2,38.2,30.13,NNE,31,3.3,6.1,100,0.00,,,0.00,Meteorologica,2013-01-02 14:22:00,
2013-01-02 09:27:00,38.3,38.3,30.14,North,351,3.2,5.8,100,0.00,,,0.00,Meteorologica,2013-01-02 14:27:00,
2013-01-02 09:32:00,38.2,38.2,30.15,NNE,17,1.9,5.1,100,0.00,,,0.00,Meteorologica,2013-01-02 14:32:00,
2013-01-02 09:37:00,38.3,38.3,30.16,NNE,29,2.1,4.5,100,0.00,,,0.00,Meteorologica,2013-01-02 14:37:00,
2013-01-02 09:42:00,38.4,38.4,30.16,NNE,16,3.6,6.0,100,0.00,,,0.00,Meteorologica,2013-01-02 14:42:00,
2013-01-02 09:47:00,38.5,38.5,30.16,NNE,25,2.9,5.0,100,0.00,,,0.00,Meteorologica,2013-01-02 14:47:00,
2013-01-02 09:52:00,38.5,38.5,30.15,NNE,15,3.8,4.9,100,0.00,,,0.00,Meteorologica,2013-01-02 14:52:00,
2013-01-02 09:57:00,38.5,38.5,30.15,North,4,0.6,5.2,100,0.00,,,0.00,Meteorologica,2013-01-02 14:57:00,
2013-01-02 10:02:00,38.7,38.7,30.16,North,5,5.5,5.5,100,0.00,,,0.00,Meteorologica,2013-01-02 15:02:00,
2013-01-02 10:07:00,38.6,38.6,30.16,NNE,22,3.9,6.6,100,0.00,,,0.00,Meteorologica,2013-01-02 15:07:00,
2013-01-02 10:12:00,38.6,38.6,30.16,NNE,21,3.3,6.6,100,0.00,,,0.00,Meteorologica,2013-01-02 15:12:00,
2013-01-02 10:17:00,38.6,38.6,30.16,NNE,27,3.0,5.5,100,0.00,,,0.00,Meteorologica,2013-01-02 15:17:00,
2013-01-02 10:22:00,38.5,38.5,30.16,NNE,23,1.0,6.9,100,0.00,,,0.00,Meteorologica,2013-01-02 15:22:00,
2013-01-02 10:27:00,38.5,38.5,30.16,NNE,18,4.1,6.6,99,0.00,,,0.00,Meteorologica,2013-01-02 15:27:00,
2013-01-02 10:32:00,38.5,38.3,30.16,NE,38,4.5,6.5,99,0.00,,,0.00,Meteorologica,2013-01-02 15:32:00,
2013-01-02 10:37:00,38.5,37.9,30.16,NNE,25,6.0,7.1,97,0.00,,,0.00,Meteorologica,2013-01-02 15:37:00,
2013-01-02 10:42:00,38.4,37.9,30.18,NE,49,3.1,7.6,98,0.00,,,0.00,Meteorologica,2013-01-02 15:42:00,
2013-01-02 10:47:00,38.4,38.1,30.18,NNW,343,0.0,5.5,99,0.00,,,0.00,Meteorologica,2013-01-02 15:47:00,
2013-01-02 10:52:00,38.6,38.4,30.19,North,357,4.0,4.0,99,0.00,,,0.00,Meteorologica,2013-01-02 15:52:00,
2013-01-02 10:57:00,38.6,37.8,30.19,North,1,3.6,6.8,96,0.00,,,0.00,Meteorologica,2013-01-02 15:57:00,
2013-01-02 11:02:00,38.7,38.1,30.18,NNE,30,3.2,6.0,97,0.00,,,0.00,Meteorologica,2013-01-02 16:02:00,
2013-01-02 11:07:00,38.6,37.5,30.18,NNE,31,4.9,6.3,95,0.00,,,0.00,Meteorologica,2013-01-02 16:07:00,
2013-01-02 11:13:00,38.6,37.4,30.18,North,9,2.2,8.3,95,0.00,,,0.00,Meteorologica,2013-01-02 16:13:00,
2013-01-02 11:18:00,38.7,37.6,30.18,NNW,345,2.4,5.8,95,0.00,,,0.00,Meteorologica,2013-01-02 16:18:00,
2013-01-02 11:23:00,38.6,37.7,30.18,North,11,2.5,5.5,96,0.00,,,0.00,Meteorologica,2013-01-02 16:23:00,
2013-01-02 11:28:00,38.7,37.2,30.17,North,8,4.0,4.4,94,0.00,,,0.00,Meteorologica,2013-01-02 16:28:00,
2013-01-02 11:33:00,38.6,37.0,30.17,NNE,15,3.4,6.6,94,0.00,,,0.00,Meteorologica,2013-01-02 16:33:00,
2013-01-02 11:38:00,38.7,37.5,30.17,North,358,2.1,6.5,95,0.00,,,0.00,Meteorologica,2013-01-02 16:38:00,
2013-01-02 11:43:00,38.7,37.5,30.17,NW,324,0.0,6.0,95,0.00,,,0.00,Meteorologica,2013-01-02 16:43:00,
2013-01-02 11:48:00,38.7,37.3,30.17,NNW,330,1.1,4.9,95,0.00,,,0.00,Meteorologica,2013-01-02 16:48:00,
2013-01-02 11:53:00,38.8,37.5,30.16,NNE,28,2.5,4.6,95,0.00,,,0.00,Meteorologica,2013-01-02 16:53:00,
2013-01-02 11:58:00,38.9,37.7,30.16,NNE,20,3.3,4.7,95,0.00,,,0.00,Meteorologica,2013-01-02 16:58:00,
2013-01-02 12:03:00,38.8,37.4,30.16,NE,50,2.7,4.8,94,0.00,,,0.00,Meteorologica,2013-01-02 17:03:00,
2013-01-02 12:08:00,38.9,37.4,30.16,North,357,5.8,5.8,94,0.00,,,0.00,Meteorologica,2013-01-02 17:08:00,
2013-01-02 12:13:00,38.7,37.1,30.16,NNE,33,2.8,8.1,94,0.00,,,0.00,Meteorologica,2013-01-02 17:13:00,
2013-01-02 12:18:00,38.8,37.5,30.16,North,350,1.6,4.5,95,0.00,,,0.00,Meteorologica,2013-01-02 17:18:00,
2013-01-02 12:23:00,38.9,37.7,30.16,NNE,21,4.2,4.2,95,0.00,,,0.00,Meteorologica,2013-01-02 17:23:00,
2013-01-02 12:28:00,38.9,37.4,30.16,North,8,1.2,5.5,94,0.00,,,0.00,Meteorologica,2013-01-02 17:28:00,
2013-01-02 13:00:00,39.3,37.7,30.14,North,8,4.1,6.6,94,0.00,,,0.00,Meteorologica,2013-01-02 18:00:00,
2013-01-02 13:05:00,39.3,37.6,30.14,North,0,1.1,4.7,93,0.00,,,0.00,Meteorologica,2013-01-02 18:05:00,
2013-01-02 13:10:00,39.3,37.5,30.14,North,11,3.0,5.3,93,0.00,,,0.00,Meteorologica,2013-01-02 18:10:00,
2013-01-02 13:15:00,39.3,37.4,30.13,NNE,20,4.0,5.1,93,0.00,,,0.00,Meteorologica,2013-01-02 18:15:00,
2013-01-02 13:20:00,39.3,37.6,30.14,NNE,16,0.0,4.8,93,0.00,,,0.00,Meteorologica,2013-01-02 18:20:00,
2013-01-02 13:25:00,39.4,37.6,30.13,NNE,15,2.8,4.9,93,0.00,,,0.00,Meteorologica,2013-01-02 18:25:00,
2013-01-02 13:30:00,39.2,37.4,30.13,North,357,3.0,5.7,93,0.00,,,0.00,Meteorologica,2013-01-02 18:30:00,
2013-01-02 13:35:00,39.2,37.5,30.13,ENE,66,3.3,5.9,93,0.00,,,0.00,Meteorologica,2013-01-02 18:35:00,
2013-01-02 13:40:00,39.3,37.6,30.13,North,6,2.6,5.4,93,0.00,,,0.00,Meteorologica,2013-01-02 18:40:00,
2013-01-02 13:45:00,39.4,37.7,30.13,North,2,2.2,4.5,93,0.00,,,0.00,Meteorologica,2013-01-02 18:45:00,
2013-01-02 13:50:00,39.4,37.8,30.13,NE,45,3.0,6.8,94,0.00,,,0.00,Meteorologica,2013-01-02 18:50:00,
2013-01-02 13:55:00,39.4,37.8,30.11,East,86,1.5,6.0,94,0.00,,,0.00,Meteorologica,2013-01-02 18:55:00,
2013-01-02 14:00:00,39.3,37.5,30.13,NNE,28,0.3,6.0,93,0.00,,,0.00,Meteorologica,2013-01-02 19:00:00,
2013-01-02 14:05:00,39.2,37.4,30.13,NE,55,2.3,4.2,93,0.00,,,0.00,Meteorologica,2013-01-02 19:05:00,
2013-01-02 14:10:00,39.4,37.7,30.13,ENE,60,2.8,5.0,93,0.00,,,0.00,Meteorologica,2013-01-02 19:10:00,
2013-01-02 14:15:00,39.4,37.7,30.13,North,358,3.2,5.1,93,0.00,,,0.00,Meteorologica,2013-01-02 19:15:00,
2013-01-02 14:20:00,39.5,37.8,30.13,NNE,18,3.6,5.1,93,0.00,,,0.00,Meteorologica,2013-01-02 19:20:00,
2013-01-02 14:25:00,39.3,37.4,30.13,NNE,25,3.8,5.7,93,0.00,,,0.00,Meteorologica,2013-01-02 19:25:00,
2013-01-02 14:30:00,39.3,37.5,30.13,North,1,3.1,4.9,93,0.00,,,0.00,Meteorologica,2013-01-02 19:30:00,
2013-01-02 14:35:00,39.3,37.8,30.12,NNE,28,2.6,4.8,94,0.00,,,0.00,Meteorologica,2013-01-02 19:35:00,
2013-01-02 14:40:00,39.3,37.8,30.13,NNE,23,0.0,2.5,94,0.00,,,0.00,Meteorologica,2013-01-02 19:40:00,
2013-01-02 14:45:00,39.4,37.9,30.13,NNE,13,3.4,4.4,94,0.00,,,0.00,Meteorologica,2013-01-02 19:45:00,
2013-01-02 14:50:00,39.5,38.0,30.12,North,352,2.4,5.9,94,0.00,,,0.00,Meteorologica,2013-01-02 19:50:00,
2013-01-02 14:55:00,39.4,37.7,30.13,North,8,5.4,6.5,92,0.00,,,0.00,Meteorologica,2013-01-02 19:55:00,
2013-01-02 15:00:00,39.2,37.4,30.13,NNE,14,3.2,7.4,93,0.00,,,0.00,Meteorologica,2013-01-02 20:00:00,
2013-01-02 15:05:00,39.1,37.3,30.12,NNW,335,0.1,6.0,93,0.00,,,0.00,Meteorologica,2013-01-02 20:05:00,
2013-01-02 15:10:00,39.2,37.7,30.13,NNW,335,0.0,0.0,94,0.00,,,0.00,Meteorologica,2013-01-02 20:10:00,
2013-01-02 15:15:00,39.2,37.8,30.13,NNE,18,1.4,3.2,94,0.00,,,0.00,Meteorologica,2013-01-02 20:15:00,
2013-01-02 15:20:00,39.2,37.6,30.13,NNE,28,0.0,6.1,94,0.00,,,0.00,Meteorologica,2013-01-02 20:20:00,
2013-01-02 15:25:00,39.4,37.8,30.14,North,2,3.1,5.2,94,0.00,,,0.00,Meteorologica,2013-01-02 20:25:00,
2013-01-02 15:30:00,39.3,37.7,30.13,ENE,67,2.0,4.5,94,0.00,,,0.00,Meteorologica,2013-01-02 20:30:00,
2013-01-02 15:35:00,39.3,37.8,30.12,NNE,24,1.6,3.1,94,0.00,,,0.00,Meteorologica,2013-01-02 20:35:00,
2013-01-02 15:40:00,39.3,37.7,30.11,NNE,16,2.2,6.0,94,0.00,,,0.00,Meteorologica,2013-01-02 20:40:00,
2013-01-02 15:45:00,39.3,37.7,30.11,North,9,2.7,6.4,94,0.00,,,0.00,Meteorologica,2013-01-02 20:45:00,
2013-01-02 15:50:00,39.3,37.7,30.13,NNE,12,2.7,5.0,94,0.00,,,0.00,Meteorologica,2013-01-02 20:50:00,
2013-01-02 15:55:00,39.4,37.7,30.14,NNE,18,2.3,4.0,93,0.00,,,0.00,Meteorologica,2013-01-02 20:55:00,
2013-01-02 16:01:00,39.5,38.0,30.15,NNE,28,0.0,3.0,94,0.00,,,0.00,Meteorologica,2013-01-02 21:01:00,
2013-01-02 16:06:00,39.4,37.7,30.14,NNE,19,1.6,3.1,93,0.00,,,0.00,Meteorologica,2013-01-02 21:06:00,
2013-01-02 16:11:00,39.4,37.7,30.14,NNE,19,0.0,3.3,93,0.00,,,0.00,Meteorologica,2013-01-02 21:11:00,
2013-01-02 16:16:00,39.6,38.0,30.15,NNE,19,0.0,0.0,94,0.00,,,0.00,Meteorologica,2013-01-02 21:16:00,
2013-01-02 16:21:00,39.5,37.8,30.15,NNE,19,0.0,0.0,94,0.00,,,0.00,Meteorologica,2013-01-02 21:21:00,
2013-01-02 16:26:00,39.5,38.0,30.14,NNE,19,0.0,0.0,94,0.00,,,0.00,Meteorologica,2013-01-02 21:26:00,
2013-01-02 16:31:00,39.5,38.0,30.15,NNE,19,0.0,0.0,94,0.00,,,0.00,Meteorologica,2013-01-02 21:31:00,
2013-01-02 16:36:00,39.4,37.9,30.16,NNE,19,0.0,0.0,94,0.00,,,0.00,Meteorologica,2013-01-02 21:36:00,
2013-01-02 16:41:00,39.4,37.7,30.16,NNE,19,0.0,0.0,93,0.00,,,0.00,Meteorologica,2013-01-02 21:41:00,
2013-01-02 16:47:00,39.5,38.0,30.16,NNE,19,0.0,0.0,94,0.00,,,0.00,Meteorologica,2013-01-02 21:47:00,
2013-01-02 16:52:00,39.4,37.9,30.16,NNE,19,0.0,0.0,94,0.00,,,0.00,Meteorologica,2013-01-02 21:52:00,
2013-01-02 16:57:00,39.5,38.0,30.16,NNE,19,0.0,0.0,94,0.00,,,0.00,Meteorologica,2013-01-02 21:57:00,
2013-01-02 17:02:00,39.6,38.2,30.16,NNE,19,0.0,0.0,94,0.00,,,0.00,Meteorologica,2013-01-02 22:02:00,
2013-01-02 17:07:00,39.4,38.0,30.15,NNE,19,0.0,0.0,95,0.00,,,0.00,Meteorologica,2013-01-02 22:07:00,
2013-01-02 17:12:00,39.4,37.9,30.14,NNE,19,0.0,0.0,94,0.00,,,0.00,Meteorologica,2013-01-02 22:12:00,
2013-01-02 17:17:00,39.5,38.2,30.14,NNE,19,0.0,0.0,95,0.00,,,0.00,Meteorologica,2013-01-02 22:17:00,
2013-01-02 17:22:00,39.3,38.3,30.15,NNE,19,0.0,0.0,96,0.00,,,0.00,Meteorologica,2013-01-02 22:22:00,
2013-01-02 17:27:00,39.3,38.3,30.14,NNE,18,0.9,2.4,96,0.00,,,0.00,Meteorologica,2013-01-02 22:27:00,
2013-01-02 17:32:00,39.1,37.9,30.14,NNE,18,0.0,3.8,95,0.00,,,0.00,Meteorologica,2013-01-02 22:32:00,
2013-01-02 17:37:00,39.1,37.8,30.15,NNE,18,1.1,3.8,95,0.00,,,0.00,Meteorologica,2013-01-02 22:37:00,
2013-01-02 17:42:00,39.3,38.1,30.15,NNW,347,0.0,3.8,95,0.00,,,0.00,Meteorologica,2013-01-02 22:42:00,
2013-01-02 17:47:00,39.1,37.8,30.14,NNW,347,0.0,0.0,95,0.00,,,0.00,Meteorologica,2013-01-02 22:47:00,
2013-01-02 18:00:00,38.8,37.4,30.15,NNE,17,2.6,5.1,94,0.00,,,0.00,Meteorologica,2013-01-02 23:00:00,
2013-01-02 18:05:00,38.9,37.6,30.14,NE,39,0.0,5.9,95,0.00,,,0.00,Meteorologica,2013-01-02 23:05:00,
2013-01-02 18:10:00,38.8,37.5,30.14,NNE,25,0.0,5.0,95,0.00,,,0.00,Meteorologica,2013-01-02 23:10:00,
2013-01-02 18:15:00,38.9,37.7,30.14,NNE,25,0.0,0.0,95,0.00,,,0.00,Meteorologica,2013-01-02 23:15:00,
2013-01-02 18:20:00,38.8,37.7,30.14,NNE,31,0.0,3.3,95,0.00,,,0.00,Meteorologica,2013-01-02 23:20:00,
2013-01-02 18:25:00,38.7,37.6,30.15,NNE,31,0.0,0.0,96,0.00,,,0.00,Meteorologica,2013-01-02 23:25:00,
2013-01-02 18:30:00,38.7,37.7,30.16,NNE,31,0.0,0.0,96,0.00,,,0.00,Meteorologica,2013-01-02 23:30:00,
2013-01-02 18:35:00,38.7,37.6,30.16,NNE,31,0.0,0.0,96,0.00,,,0.00,Meteorologica,2013-01-02 23:35:00,
2013-01-02 18:41:00,38.7,37.7,30.14,NNE,31,0.0,0.0,96,0.00,,,0.00,Meteorologica,2013-01-02 23:41:00,
2013-01-02 18:46:00,38.7,37.8,30.14,NNE,31,0.0,0.0,96,0.00,,,0.00,Meteorologica,2013-01-02 23:46:00,
2013-01-02 18:51:00,38.6,37.7,30.16,NNE,31,0.0,0.0,96,0.00,,,0.00,Meteorologica,2013-01-02 23:51:00,
2013-01-02 18:56:00,38.8,37.9,30.16,NNE,31,0.0,0.0,96,0.00,,,0.00,Meteorologica,2013-01-02 23:56:00,
2013-01-02 19:01:00,38.7,37.8,30.16,NNE,31,0.0,0.0,96,0.00,,,0.00,Meteorologica,2013-01-03 00:01:00,
2013-01-02 19:06:00,38.6,37.5,30.16,NNE,31,0.0,0.0,96,0.00,,,0.00,Meteorologica,2013-01-03 00:06:00,
2013-01-02 19:11:00,38.6,37.6,30.16,NNE,31,0.0,0.0,96,0.00,,,0.00,Meteorologica,2013-01-03 00:11:00,
2013-01-02 19:16:00,38.6,37.7,30.16,NNE,31,0.0,0.0,96,0.00,,,0.00,Meteorologica,2013-01-03 00:16:00,
2013-01-02 19:21:00,38.6,37.7,30.17,NNE,31,0.0,0.0,96,0.00,,,0.00,Meteorologica,2013-01-03 00:21:00,
2013-01-02 19:26:00,38.7,37.8,30.18,NNE,31,0.0,0.0,96,0.00,,,0.00,Meteorologica,2013-01-03 00:26:00,
2013-01-02 19:31:00,38.5,37.6,30.17,NNE,31,0.0,0.0,96,0.00,,,0.00,Meteorologica,2013-01-03 00:31:00,
2013-01-02 19:36:00,38.5,37.6,30.17,NNE,31,0.0,0.0,96,0.00,,,0.00,Meteorologica,2013-01-03 00:36:00,
2013-01-02 19:41:00,38.6,37.8,30.16,NNE,31,0.0,0.0,96,0.00,,,0.00,Meteorologica,2013-01-03 00:41:00,
2013-01-02 19:46:00,38.5,37.8,30.17,NNE,31,0.0,0.0,97,0.00,,,0.00,Meteorologica,2013-01-03 00:46:00,
2013-01-02 19:52:00,38.5,37.7,30.17,NNE,31,0.0,0.0,97,0.00,,,0.00,Meteorologica,2013-01-03 00:52:00,
2013-01-02 19:57:00,38.6,37.8,30.17,NNE,31,0.0,0.0,97,0.00,,,0.00,Meteorologica,2013-01-03 00:57:00,
2013-01-02 20:02:00,38.4,37.7,30.16,NNE,31,0.0,0.0,97,0.00,,,0.00,Meteorologica,2013-01-03 01:02:00,
2013-01-02 20:07:00,38.4,37.9,30.17,NNE,31,0.0,0.0,98,0.00,,,0.00,Meteorologica,2013-01-03 01:07:00,
2013-01-02 20:12:00,38.4,37.8,30.17,NNE,31,0.0,0.0,97,0.00,,,0.00,Meteorologica,2013-01-03 01:12:00,
2013-01-02 20:17:00,38.4,37.8,30.18,NNE,31,0.0,0.0,97,0.00,,,0.00,Meteorologica,2013-01-03 01:17:00,
2013-01-02 20:22:00,38.3,37.7,30.17,NNE,31,0.0,0.0,97,0.00,,,0.00,Meteorologica,2013-01-03 01:22:00,
2013-01-02 20:27:00,38.4,37.8,30.17,NNE,31,0.0,0.0,97,0.00,,,0.00,Meteorologica,2013-01-03 01:27:00,
2013-01-02 20:33:00,38.5,38.2,30.18,NNE,31,0.0,0.0,98,0.00,,,0.00,Meteorologica,2013-01-03 01:33:00,
2013-01-02 20:38:00,38.4,38.2,30.18,NNE,31,0.0,0.0,99,0.00,,,0.00,Meteorologica,2013-01-03 01:38:00,
2013-01-02 20:43:00,38.3,38.3,30.17,NNE,31,0.0,0.0,100,0.00,,,0.00,Meteorologica,2013-01-03 01:43:00,
2013-01-02 20:48:00,38.4,38.4,30.19,NNE,31,0.0,0.0,100,0.00,,,0.00,Meteorologica,2013-01-03 01:48:00,
2013-01-02 20:53:00,38.3,38.1,30.19,NNE,31,0.0,0.0,99,0.00,,,0.00,Meteorologica,2013-01-03 01:53:00,
2013-01-02 20:58:00,38.3,38.0,30.19,NNE,31,0.0,0.0,99,0.00,,,0.00,Meteorologica,2013-01-03 01:58:00,
2013-01-02 21:03:00,38.3,38.0,30.19,NNE,31,0.0,0.0,99,0.00,,,0.00,Meteorologica,2013-01-03 02:03:00,
2013-01-02 21:08:00,38.2,38.0,30.18,NNE,31,0.0,0.0,99,0.00,,,0.00,Meteorologica,2013-01-03 02:08:00,
2013-01-02 21:13:00,38.2,38.1,30.18,NNE,31,0.0,0.0,99,0.00,,,0.00,Meteorologica,2013-01-03 02:13:00,
2013-01-02 21:19:00,38.3,38.3,30.18,NNE,31,0.0,0.0,100,0.00,,,0.00,Meteorologica,2013-01-03 02:19:00,
2013-01-02 21:24:00,38.1,38.1,30.19,NNE,31,0.0,0.0,100,0.00,,,0.00,Meteorologica,2013-01-03 02:24:00,
2013-01-02 21:29:00,38.2,38.0,30.19,NNE,31,0.0,0.0,99,0.00,,,0.00,Meteorologica,2013-01-03 02:29:00,
2013-01-02 21:34:00,38.2,38.1,30.18,NNE,31,0.0,0.0,99,0.00,,,0.00,Meteorologica,2013-01-03 02:34:00,
2013-01-02 21:39:00,38.1,38.1,30.18,NNE,31,0.0,0.0,100,0.00,,,0.00,Meteorologica,2013-01-03 02:39:00,
2013-01-02 21:45:00,38.2,38.2,30.18,NNE,31,0.0,0.0,100,0.00,,,0.00,Meteorologica,2013-01-03 02:45:00,
2013-01-02 21:50:00,38.2,38.2,30.19,NNE,31,0.0,0.0,100,0.00,,,0.00,Meteorologica,2013-01-03 02:50:00,
2013-01-02 21:55:00,38.1,38.1,30.17,NNE,31,0.0,0.0,100,0.00,,,0.00,Meteorologica,2013-01-03 02:55:00,
2013-01-02 22:01:00,38.1,38.1,30.18,NNE,31,0.0,0.0,100,0.00,,,0.00,Meteorologica,2013-01-03 03:01:00,
2013-01-02 22:06:00,38.0,38.0,30.18,NNE,31,0.0,0.0,100,0.00,,,0.00,Meteorologica,2013-01-03 03:06:00,
2013-01-02 22:11:00,38.0,38.0,30.18,NNE,31,0.0,0.0,100,0.00,,,0.00,Meteorologica,2013-01-03 03:11:00,
2013-01-02 22:16:00,37.8,37.8,30.17,NNE,31,0.0,0.0,100,0.00,,,0.00,Meteorologica,2013-01-03 03:16:00,
2013-01-02 22:22:00,37.8,37.8,30.18,NNE,31,0.0,0.0,100,0.00,,,0.00,Meteorologica,2013-01-03 03:22:00,
2013-01-02 22:27:00,37.8,37.8,30.19,NNE,31,0.0,0.0,100,0.00,,,0.00,Meteorologica,2013-01-03 03:27:00,
2013-01-02 22:32:00,37.8,37.8,30.18,NNE,31,0.0,0.0,100,0.00,,,0.00,Meteorologica,2013-01-03 03:32:00,
2013-01-02 22:37:00,37.9,37.9,30.18,NNE,31,0.0,0.0,100,0.00,,,0.00,Meteorologica,2013-01-03 03:37:00,
2013-01-02 22:44:00,37.8,37.8,30.19,NNE,31,0.0,0.0,100,0.00,,,0.00,Meteorologica,2013-01-03 03:44:00,
2013-01-02 22:49:00,37.8,37.8,30.19,NNE,31,0.0,0.0,100,0.00,,,0.00,Meteorologica,2013-01-03 03:49:00,
2013-01-02 22:54:00,37.8,37.8,30.19,NNE,31,0.0,0.0,100,0.00,,,0.00,Meteorologica,2013-01-03 03:54:00,
2013-01-02 22:59:00,37.8,37.8,30.18,NNE,31,0.0,0.0,100,0.00,,,0.00,Meteorologica,2013-01-03 03:59:00,
2013-01-02 23:05:00,37.9,37.9,30.19,NNE,31,0.0,0.0,100,0.00,,,0.00,Meteorologica,2013-01-03 04:05:00,
2013-01-02 23:10:00,37.8,37.8,30.19,NNE,31,0.0,0.0,100,0.00,,,0.00,Meteorologica,2013-01-03 04:10:00,
2013-01-02 23:15:00,37.8,37.8,30.20,NE,42,1.2,3.8,100,0.00,,,0.00,Meteorologica,2013-01-03 04:15:00,
2013-01-02 23:20:00,37.7,37.7,30.19,NNE,14,0.0,2.4,100,0.00,,,0.00,Meteorologica,2013-01-03 04:20:00,
2013-01-02 23:25:00,37.8,37.8,30.19,NE,56,0.4,0.0,100,0.00,,,0.00,Meteorologica,2013-01-03 04:25:00,
2013-01-02 23:30:00,37.9,37.9,30.18,NNE,21,0.0,2.4,100,0.00,,,0.00,Meteorologica,2013-01-03 04:30:00,
2013-01-02 23:36:00,37.9,37.9,30.19,NNE,21,0.0,0.0,100,0.00,,,0.00,Meteorologica,2013-01-03 04:36:00,
2013-01-02 23:41:00,37.8,37.8,30.19,NNE,21,0.0,0.0,100,0.00,,,0.00,Meteorologica,2013-01-03 04:41:00,
2013-01-02 23:46:00,37.9,37.9,30.19,North,1,0.0,3.5,100,0.00,,,0.00,Meteorologica,2013-01-03 04:46:00,
2013-01-02 23:51:00,37.8,37.8,30.19,North,1,0.0,0.0,100,0.00,,,0.00,Meteorologica,2013-01-03 04:51:00,
2013-01-02 23:56:00,37.8,37.8,30.19,North,1,0.0,0.0,100,0.00,,,0.00,Meteorologica,2013-01-03 04:56:00,